sensor_id;sensor_type;location;lat;lon;timestamp;pressure;altitude;pressure_sealevel;temperature;humidity
68654;BME280;55636;51.108;13.622;2023-02-10T00:00:55;102104.25;;;-1.85;49.59
68654;BME280;55636;51.108;13.622;2023-02-10T00:01:57;102112.38;;;-1.85;49.71
68654;BME280;55636;51.108;13.622;2023-02-10T00:03:02;102105.13;;;-1.84;49.47
68654;BME280;55636;51.108;13.622;2023-02-10T00:04:04;102100.84;;;-1.87;49.49
68654;BME280;55636;51.108;13.622;2023-02-10T00:05:07;102097.97;;;-1.85;49.42
68654;BME280;55636;51.108;13.622;2023-02-10T00:06:11;102101.41;;;-1.83;49.40
68654;BME280;55636;51.108;13.622;2023-02-10T00:07:14;102107.84;;;-1.84;49.40
68654;BME280;55636;51.108;13.622;2023-02-10T00:08:16;102096.13;;;-1.85;49.36
68654;BME280;55636;51.108;13.622;2023-02-10T00:09:19;102104.25;;;-1.85;49.32
68654;BME280;55636;51.108;13.622;2023-02-10T00:10:21;102099.69;;;-1.84;49.25
68654;BME280;55636;51.108;13.622;2023-02-10T00:11:24;102101.53;;;-1.85;49.27
68654;BME280;55636;51.108;13.622;2023-02-10T00:12:45;102104.09;;;-1.83;49.31
68654;BME280;55636;51.108;13.622;2023-02-10T00:13:48;102104.97;;;-1.83;nan
68654;BME280;55636;51.108;13.622;2023-02-10T00:14:50;102099.41;;;-1.81;49.25
68654;BME280;55636;51.108;13.622;2023-02-10T00:15:53;102101.25;;;-1.82;49.12
68654;BME280;55636;51.108;13.622;2023-02-10T00:16:56;102104.97;;;-1.83;49.10
68654;BME280;55636;51.108;13.622;2023-02-10T00:17:59;102096.84;;;-1.83;49.06
68654;BME280;55636;51.108;13.622;2023-02-10T00:19:01;102103.13;;;-1.82;49.26
68654;BME280;55636;51.108;13.622;2023-02-10T00:20:04;102103.97;;;-1.82;49.00
68654;BME280;55636;51.108;13.622;2023-02-10T00:21:12;102109.28;;;-1.80;48.96
68654;BME280;55636;51.108;13.622;2023-02-10T00:22:15;102113.81;;;-1.81;48.99
68654;BME280;55636;51.108;13.622;2023-02-10T00:23:17;102102.97;;;-1.81;49.05
68654;BME280;55636;51.108;13.622;2023-02-10T00:24:20;102103.84;;;-1.80;49.04
68654;BME280;55636;51.108;13.622;2023-02-10T00:25:23;102098.53;;;-1.82;48.87
68654;BME280;55636;51.108;13.622;2023-02-10T00:26:26;102109.28;;;-1.80;48.92
68654;BME280;55636;51.108;13.622;2023-02-10T00:27:28;102100.25;;;-1.81;48.92
68654;BME280;55636;51.108;13.622;2023-02-10T00:28:32;102108.41;;;-1.81;49.02
68654;BME280;55636;51.108;13.622;2023-02-10T00:29:35;102106.66;;;-1.82;48.98
68654;BME280;55636;51.108;13.622;2023-02-10T00:30:38;102109.38;;;-1.82;48.89
68654;BME280;55636;51.108;13.622;2023-02-10T00:31:40;102103.97;;;-1.82;48.99
68654;BME280;55636;51.108;13.622;2023-02-10T00:32:46;102103.13;;;-1.82;48.81
68654;BME280;55636;51.108;13.622;2023-02-10T00:33:48;102112.22;;;-1.83;48.71
68654;BME280;55636;51.108;13.622;2023-02-10T00:34:51;102106.81;;;-1.83;48.82
68654;BME280;55636;51.108;13.622;2023-02-10T00:35:55;102115.97;;;-1.84;48.98
68654;BME280;55636;51.108;13.622;2023-02-10T00:36:59;102115.09;;;-1.85;48.93
68654;BME280;55636;51.108;13.622;2023-02-10T00:38:01;102115.97;;;-1.84;48.94
68654;BME280;55636;51.108;13.622;2023-02-10T00:39:03;102121.50;;;-1.86;48.96
68654;BME280;55636;51.108;13.622;2023-02-10T00:40:08;102120.66;;;-1.86;48.89
68654;BME280;55636;51.108;13.622;2023-02-10T00:41:13;102126.91;;;-1.86;48.86
68654;BME280;55636;51.108;13.622;2023-02-10T00:42:16;102125.22;;;-1.87;48.89
68654;BME280;55636;51.108;13.622;2023-02-10T00:43:18;102120.78;;;-1.88;48.83
68654;BME280;55636;51.108;13.622;2023-02-10T00:44:21;102122.63;;;-1.89;48.93
68654;BME280;55636;51.108;13.622;2023-02-10T00:45:24;102126.22;;;-1.88;48.85
68654;BME280;55636;51.108;13.622;2023-02-10T00:46:27;102124.47;;;-1.89;48.90
68654;BME280;55636;51.108;13.622;2023-02-10T00:47:29;102126.34;;;-1.90;48.92
68654;BME280;55636;51.108;13.622;2023-02-10T00:48:32;102130.88;;;-1.90;48.81
68654;BME280;55636;51.108;13.622;2023-02-10T00:49:34;102123.88;;;-1.93;48.94
68654;BME280;55636;51.108;13.622;2023-02-10T00:50:37;102132.00;;;-1.93;48.91
68654;BME280;55636;51.108;13.622;2023-02-10T00:51:39;102133.88;;;-1.93;48.99
68654;BME280;55636;51.108;13.622;2023-02-10T00:52:41;102123.03;;;-1.93;48.95
68654;BME280;55636;51.108;13.622;2023-02-10T00:53:45;102129.31;;;-1.93;48.92
68654;BME280;55636;51.108;13.622;2023-02-10T00:54:50;102124.16;;;-1.96;48.83
68654;BME280;55636;51.108;13.622;2023-02-10T00:55:53;102130.28;;;-1.94;48.86
68654;BME280;55636;51.108;13.622;2023-02-10T00:56:57;102127.88;;;-1.97;48.87
68654;BME280;55636;51.108;13.622;2023-02-10T00:58:00;102132.44;;;-1.97;48.85
68654;BME280;55636;51.108;13.622;2023-02-10T00:59:02;102133.41;;;-1.98;49.01
68654;BME280;55636;51.108;13.622;2023-02-10T01:00:05;102130.72;;;-1.98;48.97
68654;BME280;55636;51.108;13.622;2023-02-10T01:01:08;102120.84;;;-1.99;48.91
68654;BME280;55636;51.108;13.622;2023-02-10T01:02:12;102137.13;;;-1.99;48.79
68654;BME280;55636;51.108;13.622;2023-02-10T01:03:15;102137.13;;;-1.99;48.89
68654;BME280;55636;51.108;13.622;2023-02-10T01:04:17;102127.25;;;-2.00;48.79
68654;BME280;55636;51.108;13.622;2023-02-10T01:05:21;102124.56;;;-2.00;48.80
68654;BME280;55636;51.108;13.622;2023-02-10T01:06:23;102126.41;;;-2.01;49.03
68654;BME280;55636;51.108;13.622;2023-02-10T01:07:26;102122.84;;;-2.01;48.91
68654;BME280;55636;51.108;13.622;2023-02-10T01:08:29;102118.44;;;-2.02;48.96
68654;BME280;55636;51.108;13.622;2023-02-10T01:09:31;102126.28;;;-1.99;48.75
68654;BME280;55636;51.108;13.622;2023-02-10T01:10:34;102123.72;;;-2.01;48.82
68654;BME280;55636;51.108;13.622;2023-02-10T01:11:37;102132.69;;;-2.00;48.82
68654;BME280;55636;51.108;13.622;2023-02-10T01:12:41;102131.84;;;-2.01;48.74
68654;BME280;55636;51.108;13.622;2023-02-10T01:13:43;102129.13;;;-2.01;48.78
68654;BME280;55636;51.108;13.622;2023-02-10T01:14:46;102127.25;;;-2.00;48.82
68654;BME280;55636;51.108;13.622;2023-02-10T01:15:48;102132.69;;;-2.00;48.72
68654;BME280;55636;51.108;13.622;2023-02-10T01:16:51;102131.69;;;-1.99;48.81
68654;BME280;55636;51.108;13.622;2023-02-10T01:17:53;102138.97;;;-2.00;48.71
68654;BME280;55636;51.108;13.622;2023-02-10T01:18:58;102135.25;;;-1.99;48.83
68654;BME280;55636;51.108;13.622;2023-02-10T01:20:00;102142.53;;;-1.99;48.67
68654;BME280;55636;51.108;13.622;2023-02-10T01:21:10;102134.41;;;-1.99;48.75
68654;BME280;55636;51.108;13.622;2023-02-10T01:22:13;102136.13;;;-1.98;48.76
68654;BME280;55636;51.108;13.622;2023-02-10T01:23:15;102148.69;;;-1.97;48.68
68654;BME280;55636;51.108;13.622;2023-02-10T01:24:19;102139.69;;;-1.98;48.67
68654;BME280;55636;51.108;13.622;2023-02-10T01:25:21;102145.09;;;-1.98;48.78
68654;BME280;55636;51.108;13.622;2023-02-10T01:26:25;102146.81;;;-1.97;48.77
68654;BME280;55636;51.108;13.622;2023-02-10T01:27:27;102143.28;;;-1.97;48.69
68654;BME280;55636;51.108;13.622;2023-02-10T01:28:29;102144.13;;;-1.97;48.81
68654;BME280;55636;51.108;13.622;2023-02-10T01:29:32;102142.16;;;-1.95;48.77
68654;BME280;55636;51.108;13.622;2023-02-10T01:30:35;102140.28;;;-1.94;48.79
68654;BME280;55636;51.108;13.622;2023-02-10T01:31:37;102140.28;;;-1.94;48.62
68654;BME280;55636;51.108;13.622;2023-02-10T01:32:40;102136.72;;;-1.95;48.71
68654;BME280;55636;51.108;13.622;2023-02-10T01:33:42;102136.72;;;-1.95;48.76
68654;BME280;55636;51.108;13.622;2023-02-10T01:34:45;102137.56;;;-1.94;48.77
68654;BME280;55636;51.108;13.622;2023-02-10T01:35:47;102136.59;;;-1.93;48.84
68654;BME280;55636;51.108;13.622;2023-02-10T01:36:49;102133.00;;;-1.94;48.59
68654;BME280;55636;51.108;13.622;2023-02-10T01:37:52;102138.31;;;-1.92;48.69
68654;BME280;55636;51.108;13.622;2023-02-10T01:38:54;102133.88;;;-1.93;48.66
68654;BME280;55636;51.108;13.622;2023-02-10T01:39:57;102132.91;;;-1.92;48.54
68654;BME280;55636;51.108;13.622;2023-02-10T01:41:04;102132.91;;;-1.92;48.73
68654;BME280;55636;51.108;13.622;2023-02-10T01:42:12;102127.47;;;-1.92;48.69
68654;BME280;55636;51.108;13.622;2023-02-10T01:43:16;102126.44;;;-1.91;48.67
68654;BME280;55636;51.108;13.622;2023-02-10T01:45:29;102131.88;;;-1.91;48.54
68654;BME280;55636;51.108;13.622;2023-02-10T01:46:34;102131.88;;;-1.91;48.57
68654;BME280;55636;51.108;13.622;2023-02-10T01:47:37;102132.75;;;-1.91;48.57
68654;BME280;55636;51.108;13.622;2023-02-10T01:48:39;102136.31;;;-1.90;48.56
68654;BME280;55636;51.108;13.622;2023-02-10T01:49:45;102139.00;;;-1.90;48.68
68654;BME280;55636;51.108;13.622;2023-02-10T01:50:55;102133.72;;;-1.92;48.69
68654;BME280;55636;51.108;13.622;2023-02-10T01:52:11;102147.00;;;-1.89;48.68
68654;BME280;55636;51.108;13.622;2023-02-10T01:53:14;102143.44;;;-1.89;48.64
68654;BME280;55636;51.108;13.622;2023-02-10T01:54:27;102136.06;;;-1.87;48.50
68654;BME280;55636;51.108;13.622;2023-02-10T01:55:35;102142.59;;;-1.90;48.56
68654;BME280;55636;51.108;13.622;2023-02-10T01:56:41;102135.31;;;-1.89;48.65
68654;BME280;55636;51.108;13.622;2023-02-10T01:57:46;102142.59;;;-1.90;48.64
68654;BME280;55636;51.108;13.622;2023-02-10T01:58:51;102141.72;;;-1.90;48.73
68654;BME280;55636;51.108;13.622;2023-02-10T01:59:55;102139.00;;;-1.90;48.66
68654;BME280;55636;51.108;13.622;2023-02-10T02:00:59;102137.28;;;-1.91;48.48
68654;BME280;55636;51.108;13.622;2023-02-10T02:02:02;102131.03;;;-1.92;48.55
68654;BME280;55636;51.108;13.622;2023-02-10T02:03:09;102140.13;;;-1.93;48.61
68654;BME280;55636;51.108;13.622;2023-02-10T02:04:11;102134.72;;;-1.93;48.50
68654;BME280;55636;51.108;13.622;2023-02-10T02:05:38;102136.59;;;-1.93;48.54
68654;BME280;55636;51.108;13.622;2023-02-10T02:06:41;102146.69;;;-1.95;48.53
68654;BME280;55636;51.108;13.622;2023-02-10T02:07:45;102138.56;;;-1.95;48.65
68654;BME280;55636;51.108;13.622;2023-02-10T02:08:50;102136.84;;;-1.96;48.55
68654;BME280;55636;51.108;13.622;2023-02-10T02:09:53;102137.84;;;-1.97;48.72
68654;BME280;55636;51.108;13.622;2023-02-10T02:12:59;102143.53;;;-2.00;48.57
68654;BME280;55636;51.108;13.622;2023-02-10T02:15:22;102142.91;;;-2.04;48.70
68654;BME280;55636;51.108;13.622;2023-02-10T02:18:09;102138.66;;;-2.07;48.64
68654;BME280;55636;51.108;13.622;2023-02-10T02:23:33;102153.56;;;-2.12;48.66
68654;BME280;55636;51.108;13.622;2023-02-10T02:26:27;102151.00;;;-2.14;48.77
68654;BME280;55636;51.108;13.622;2023-02-10T02:27:58;102145.72;;;-2.15;48.81
68654;BME280;55636;51.108;13.622;2023-02-10T02:31:01;102151.38;;;-2.18;48.70
68654;BME280;55636;51.108;13.622;2023-02-10T02:32:29;102147.97;;;-2.21;48.88
68654;BME280;55636;51.108;13.622;2023-02-10T02:33:47;102150.81;;;-2.22;48.76
68654;BME280;55636;51.108;13.622;2023-02-10T02:35:13;102158.19;;;-2.24;48.98
68654;BME280;55636;51.108;13.622;2023-02-10T02:36:29;102160.06;;;-2.25;48.88
68654;BME280;55636;51.108;13.622;2023-02-10T02:37:36;102157.34;;;-2.25;48.87
68654;BME280;55636;51.108;13.622;2023-02-10T02:38:41;102152.03;;;-2.26;48.90
68654;BME280;55636;51.108;13.622;2023-02-10T02:39:44;102150.34;;;-2.27;48.87
68654;BME280;55636;51.108;13.622;2023-02-10T02:40:46;102151.34;;;-2.28;48.98
68654;BME280;55636;51.108;13.622;2023-02-10T02:42:13;102151.34;;;-2.28;49.06
68654;BME280;55636;51.108;13.622;2023-02-10T02:43:16;102161.31;;;-2.29;49.17
68654;BME280;55636;51.108;13.622;2023-02-10T02:44:19;102156.88;;;-2.30;49.02
68654;BME280;55636;51.108;13.622;2023-02-10T02:45:29;102155.03;;;-2.29;49.10
68654;BME280;55636;51.108;13.622;2023-02-10T02:46:47;102147.88;;;-2.30;49.19
68654;BME280;55636;51.108;13.622;2023-02-10T02:48:21;102147.88;;;-2.30;49.23
68654;BME280;55636;51.108;13.622;2023-02-10T02:49:57;102145.31;;;-2.32;49.18
68654;BME280;55636;51.108;13.622;2023-02-10T02:53:16;102143.50;;;-2.31;49.23
68654;BME280;55636;51.108;13.622;2023-02-10T02:54:25;102139.06;;;-2.32;49.44
68654;BME280;55636;51.108;13.622;2023-02-10T02:55:46;102142.47;;;-2.30;49.35
68654;BME280;55636;51.108;13.622;2023-02-10T02:57:57;102139.06;;;-2.32;49.50
68654;BME280;55636;51.108;13.622;2023-02-10T03:00:06;102147.88;;;-2.30;49.44
68654;BME280;55636;51.108;13.622;2023-02-10T03:01:17;102140.63;;;-2.30;49.38
68654;BME280;55636;51.108;13.622;2023-02-10T03:02:27;102142.38;;;-2.29;49.53
68654;BME280;55636;51.108;13.622;2023-02-10T03:03:32;102144.06;;;-2.28;49.50
68654;BME280;55636;51.108;13.622;2023-02-10T03:04:36;102145.78;;;-2.27;49.45
68654;BME280;55636;51.108;13.622;2023-02-10T03:05:38;102144.06;;;-2.28;49.63
68654;BME280;55636;51.108;13.622;2023-02-10T03:06:41;102146.63;;;-2.26;49.55
68654;BME280;55636;51.108;13.622;2023-02-10T03:07:43;102156.47;;;-2.25;49.49
68654;BME280;55636;51.108;13.622;2023-02-10T03:08:46;102150.06;;;-2.24;49.43
68654;BME280;55636;51.108;13.622;2023-02-10T03:09:48;102153.53;;;-2.22;49.69
68654;BME280;55636;51.108;13.622;2023-02-10T03:10:50;102151.66;;;-2.22;49.56
68654;BME280;55636;51.108;13.622;2023-02-10T03:11:53;102149.69;;;-2.19;49.63
68654;BME280;55636;51.108;13.622;2023-02-10T03:12:55;102145.97;;;-2.18;49.63
68654;BME280;55636;51.108;13.622;2023-02-10T03:13:59;102143.16;;;-2.17;49.50
68654;BME280;55636;51.108;13.622;2023-02-10T03:15:02;102135.72;;;-2.15;49.54
68654;BME280;55636;51.108;13.622;2023-02-10T03:16:05;102136.63;;;-2.14;49.59
68654;BME280;55636;51.108;13.622;2023-02-10T03:17:07;102140.91;;;-2.12;49.59
68654;BME280;55636;51.108;13.622;2023-02-10T03:18:09;102147.03;;;-2.10;49.71
68654;BME280;55636;51.108;13.622;2023-02-10T03:19:12;102145.19;;;-2.09;49.67
68654;BME280;55636;51.108;13.622;2023-02-10T03:20:16;102137.78;;;-2.07;49.57
68654;BME280;55636;51.108;13.622;2023-02-10T03:21:18;102140.34;;;-2.06;49.66
68654;BME280;55636;51.108;13.622;2023-02-10T03:22:21;102146.38;;;-2.02;49.58
68654;BME280;55636;51.108;13.622;2023-02-10T03:23:23;102143.53;;;-2.00;49.63
68654;BME280;55636;51.108;13.622;2023-02-10T03:24:25;102149.81;;;-2.00;49.68
68654;BME280;55636;51.108;13.622;2023-02-10T03:25:28;102145.97;;;-1.97;49.66
68654;BME280;55636;51.108;13.622;2023-02-10T03:26:30;102145.84;;;-1.96;49.63
68654;BME280;55636;51.108;13.622;2023-02-10T03:27:32;102146.53;;;-1.94;49.73
68654;BME280;55636;51.108;13.622;2023-02-10T03:28:34;102149.00;;;-1.91;49.65
68654;BME280;55636;51.108;13.622;2023-02-10T03:29:37;102152.41;;;-1.89;49.56
68654;BME280;55636;51.108;13.622;2023-02-10T03:30:40;102149.59;;;-1.87;49.49
68654;BME280;55636;51.108;13.622;2023-02-10T03:31:51;102148.59;;;-1.86;49.49
68654;BME280;55636;51.108;13.622;2023-02-10T03:32:53;102134.78;;;-1.83;49.54
68654;BME280;55636;51.108;13.622;2023-02-10T03:33:57;102144.50;;;-1.80;49.67
68654;BME280;55636;51.108;13.622;2023-02-10T03:34:59;102142.50;;;-1.78;49.41
68654;BME280;55636;51.108;13.622;2023-02-10T03:36:02;102141.50;;;-1.77;49.57
68654;BME280;55636;51.108;13.622;2023-02-10T03:37:05;102145.81;;;-1.75;49.43
68654;BME280;55636;51.108;13.622;2023-02-10T03:38:07;102142.94;;;-1.73;49.44
68654;BME280;55636;51.108;13.622;2023-02-10T03:39:09;102142.56;;;-1.68;49.60
68654;BME280;55636;51.108;13.622;2023-02-10T03:40:12;102145.13;;;-1.67;49.55
68654;BME280;55636;51.108;13.622;2023-02-10T03:41:15;102144.00;;;-1.64;49.46
68654;BME280;55636;51.108;13.622;2023-02-10T03:42:18;102149.28;;;-1.63;49.35
68654;BME280;55636;51.108;13.622;2023-02-10T03:43:22;102138.28;;;-1.61;49.46
68654;BME280;55636;51.108;13.622;2023-02-10T03:44:25;102145.28;;;-1.59;49.54
68654;BME280;55636;51.108;13.622;2023-02-10T03:45:27;102154.16;;;-1.57;49.43
68654;BME280;55636;51.108;13.622;2023-02-10T03:46:29;102151.03;;;-1.52;49.40
68654;BME280;55636;51.108;13.622;2023-02-10T03:47:31;102151.75;;;-1.50;49.28
68654;BME280;55636;51.108;13.622;2023-02-10T03:48:34;102154.31;;;-1.48;49.34
68654;BME280;55636;51.108;13.622;2023-02-10T03:49:36;102153.19;;;-1.46;49.18
68654;BME280;55636;51.108;13.622;2023-02-10T03:50:39;102151.91;;;-1.42;49.38
68654;BME280;55636;51.108;13.622;2023-02-10T03:51:42;102150.09;;;-1.41;49.38
68654;BME280;55636;51.108;13.622;2023-02-10T03:52:44;102152.50;;;-1.38;49.35
68654;BME280;55636;51.108;13.622;2023-02-10T03:53:46;102145.25;;;-1.38;49.40
68654;BME280;55636;51.108;13.622;2023-02-10T03:54:49;102153.09;;;-1.34;49.44
68654;BME280;55636;51.108;13.622;2023-02-10T03:55:51;102152.97;;;-1.33;49.24
68654;BME280;55636;51.108;13.622;2023-02-10T03:56:53;102156.41;;;-1.31;49.23
68654;BME280;55636;51.108;13.622;2023-02-10T03:57:55;102152.66;;;-1.30;49.32
68654;BME280;55636;51.108;13.622;2023-02-10T03:59:01;102156.13;;;-1.28;49.39
68654;BME280;55636;51.108;13.622;2023-02-10T04:00:04;102161.41;;;-1.26;49.22
68654;BME280;55636;51.108;13.622;2023-02-10T04:01:16;102176.53;;;-1.24;49.36
68654;BME280;55636;51.108;13.622;2023-02-10T04:02:19;102174.41;;;-1.20;49.39
68654;BME280;55636;51.108;13.622;2023-02-10T04:03:23;102176.13;;;-1.19;49.36
68654;BME280;55636;51.108;13.622;2023-02-10T04:04:25;102171.41;;;-1.17;49.32
68654;BME280;55636;51.108;13.622;2023-02-10T04:05:28;102180.28;;;-1.15;49.37
68654;BME280;55636;51.108;13.622;2023-02-10T04:06:30;102182.00;;;-1.14;49.22
68654;BME280;55636;51.108;13.622;2023-02-10T04:07:32;102177.28;;;-1.12;49.20
68654;BME280;55636;51.108;13.622;2023-02-10T04:08:35;102180.00;;;-1.12;49.03
68654;BME280;55636;51.108;13.622;2023-02-10T04:09:37;102173.44;;;-1.09;49.19
68654;BME280;55636;51.108;13.622;2023-02-10T04:10:40;102178.72;;;-1.08;49.09
68654;BME280;55636;51.108;13.622;2023-02-10T04:11:43;102183.28;;;-1.08;49.09
68654;BME280;55636;51.108;13.622;2023-02-10T04:12:47;102182.00;;;-1.04;49.18
68654;BME280;55636;51.108;13.622;2023-02-10T04:13:50;102187.28;;;-1.02;49.06
68654;BME280;55636;51.108;13.622;2023-02-10T04:14:52;102182.75;;;-1.02;48.93
68654;BME280;55636;51.108;13.622;2023-02-10T04:17:07;102183.44;;;-1.00;48.91
68654;BME280;55636;51.108;13.622;2023-02-10T04:18:09;102183.34;;;-0.98;48.88
68654;BME280;55636;51.108;13.622;2023-02-10T04:19:11;102185.91;;;-0.97;48.96
68654;BME280;55636;51.108;13.622;2023-02-10T04:20:14;102185.75;;;-0.95;48.97
68654;BME280;55636;51.108;13.622;2023-02-10T04:21:16;102171.34;;;-0.96;49.00
68654;BME280;55636;51.108;13.622;2023-02-10T04:22:19;102184.75;;;-0.94;48.86
68654;BME280;55636;51.108;13.622;2023-02-10T04:23:21;102182.06;;;-0.94;48.95
68654;BME280;55636;51.108;13.622;2023-02-10T04:24:23;102182.75;;;-0.92;48.98
68654;BME280;55636;51.108;13.622;2023-02-10T04:25:26;102181.75;;;-0.91;49.00
68654;BME280;55636;51.108;13.622;2023-02-10T04:26:28;102181.47;;;-0.88;48.90
68654;BME280;55636;51.108;13.622;2023-02-10T04:27:30;102192.22;;;-0.86;48.79
68654;BME280;55636;51.108;13.622;2023-02-10T04:28:33;102197.50;;;-0.85;48.92
68654;BME280;55636;51.108;13.622;2023-02-10T04:29:36;102203.91;;;-0.86;48.74
68654;BME280;55636;51.108;13.622;2023-02-10T04:30:41;102201.94;;;-0.84;48.93
68654;BME280;55636;51.108;13.622;2023-02-10T04:31:45;102197.34;;;-0.83;48.76
68654;BME280;55636;51.108;13.622;2023-02-10T04:32:48;102204.50;;;-0.82;48.86
68654;BME280;55636;51.108;13.622;2023-02-10T04:33:50;102204.34;;;-0.81;49.03
68654;BME280;55636;51.108;13.622;2023-02-10T04:34:53;102201.63;;;-0.81;49.09
68654;BME280;55636;51.108;13.622;2023-02-10T04:35:57;102202.47;;;-0.80;49.06
68654;BME280;55636;51.108;13.622;2023-02-10T04:36:59;102200.34;;;-0.77;49.18
68654;BME280;55636;51.108;13.622;2023-02-10T04:38:03;102200.34;;;-0.77;49.38
68654;BME280;55636;51.108;13.622;2023-02-10T04:39:06;102206.66;;;-0.76;49.49
68654;BME280;55636;51.108;13.622;2023-02-10T04:40:09;102211.06;;;-0.75;49.42
68654;BME280;55636;51.108;13.622;2023-02-10T04:41:11;102204.78;;;-0.76;49.63
68654;BME280;55636;51.108;13.622;2023-02-10T04:42:14;102211.94;;;-0.75;49.70
68654;BME280;55636;51.108;13.622;2023-02-10T04:43:17;102203.78;;;-0.75;49.58
68654;BME280;55636;51.108;13.622;2023-02-10T04:44:19;102210.06;;;-0.74;49.66
68654;BME280;55636;51.108;13.622;2023-02-10T04:45:22;102211.94;;;-0.75;49.80
68654;BME280;55636;51.108;13.622;2023-02-10T04:46:24;102209.09;;;-0.73;49.65
68654;BME280;55636;51.108;13.622;2023-02-10T04:47:27;102213.50;;;-0.72;49.89
68654;BME280;55636;51.108;13.622;2023-02-10T04:48:30;102225.06;;;-0.70;49.66
68654;BME280;55636;51.108;13.622;2023-02-10T04:49:32;102225.94;;;-0.69;49.70
68654;BME280;55636;51.108;13.622;2023-02-10T04:50:36;102225.94;;;-0.69;49.78
68654;BME280;55636;51.108;13.622;2023-02-10T04:51:39;102217.81;;;-0.69;49.83
68654;BME280;55636;51.108;13.622;2023-02-10T04:52:41;102227.69;;;-0.68;49.84
68654;BME280;55636;51.108;13.622;2023-02-10T04:53:43;102225.81;;;-0.68;50.00
68654;BME280;55636;51.108;13.622;2023-02-10T04:54:46;102222.25;;;-0.68;50.27
68654;BME280;55636;51.108;13.622;2023-02-10T04:55:48;102222.25;;;-0.68;50.24
68654;BME280;55636;51.108;13.622;2023-02-10T04:56:52;102222.25;;;-0.68;50.30
68654;BME280;55636;51.108;13.622;2023-02-10T04:57:55;102218.66;;;-0.69;50.55
68654;BME280;55636;51.108;13.622;2023-02-10T04:58:58;102218.50;;;-0.67;50.61
68654;BME280;55636;51.108;13.622;2023-02-10T05:00:02;102213.06;;;-0.67;50.69
68654;BME280;55636;51.108;13.622;2023-02-10T05:01:05;102213.06;;;-0.67;50.82
68654;BME280;55636;51.108;13.622;2023-02-10T05:02:07;102207.66;;;-0.67;50.92
68654;BME280;55636;51.108;13.622;2023-02-10T05:03:09;102212.22;;;-0.68;50.83
68654;BME280;55636;51.108;13.622;2023-02-10T05:04:12;102213.06;;;-0.67;50.89
68654;BME280;55636;51.108;13.622;2023-02-10T05:05:14;102216.66;;;-0.67;51.00
68654;BME280;55636;51.108;13.622;2023-02-10T05:06:17;102213.81;;;-0.65;50.83
68654;BME280;55636;51.108;13.622;2023-02-10T05:07:19;102214.81;;;-0.66;50.99
68654;BME280;55636;51.108;13.622;2023-02-10T05:08:21;102217.50;;;-0.66;50.89
68654;BME280;55636;51.108;13.622;2023-02-10T05:09:25;102216.53;;;-0.65;51.03
68654;BME280;55636;51.108;13.622;2023-02-10T05:10:29;102216.38;;;-0.64;50.93
68654;BME280;55636;51.108;13.622;2023-02-10T05:11:31;102219.09;;;-0.64;51.04
68654;BME280;55636;51.108;13.622;2023-02-10T05:12:33;102218.25;;;-0.64;51.10
68654;BME280;55636;51.108;13.622;2023-02-10T05:13:36;102216.22;;;-0.62;50.92
68654;BME280;55636;51.108;13.622;2023-02-10T05:14:38;102210.81;;;-0.62;50.94
68654;BME280;55636;51.108;13.622;2023-02-10T05:15:40;102217.97;;;-0.61;51.17
68654;BME280;55636;51.108;13.622;2023-02-10T05:16:42;102219.69;;;-0.60;51.04
68654;BME280;55636;51.108;13.622;2023-02-10T05:17:45;102215.09;;;-0.60;51.14
68654;BME280;55636;51.108;13.622;2023-02-10T05:18:47;102221.41;;;-0.59;51.13
68654;BME280;55636;51.108;13.622;2023-02-10T05:19:53;102217.81;;;-0.60;51.07
68654;BME280;55636;51.108;13.622;2023-02-10T05:20:57;102223.09;;;-0.58;51.07
68654;BME280;55636;51.108;13.622;2023-02-10T05:21:59;102227.69;;;-0.59;51.09
68654;BME280;55636;51.108;13.622;2023-02-10T05:23:02;102223.09;;;-0.58;51.31
68654;BME280;55636;51.108;13.622;2023-02-10T05:24:04;102231.22;;;-0.58;51.14
68654;BME280;55636;51.108;13.622;2023-02-10T05:25:07;102232.97;;;-0.57;51.16
68654;BME280;55636;51.108;13.622;2023-02-10T05:26:10;102224.81;;;-0.57;51.18
68654;BME280;55636;51.108;13.622;2023-02-10T05:27:12;102235.53;;;-0.56;51.20
68654;BME280;55636;51.108;13.622;2023-02-10T05:28:15;102235.53;;;-0.56;51.42
68654;BME280;55636;51.108;13.622;2023-02-10T05:29:17;102231.97;;;-0.56;51.28
68654;BME280;55636;51.108;13.622;2023-02-10T05:30:20;102240.84;;;-0.54;51.46
68654;BME280;55636;51.108;13.622;2023-02-10T05:31:22;102239.13;;;-0.55;51.52
68654;BME280;55636;51.108;13.622;2023-02-10T05:32:25;102235.41;;;-0.54;51.38
68654;BME280;55636;51.108;13.622;2023-02-10T05:33:27;102235.41;;;-0.54;51.43
68654;BME280;55636;51.108;13.622;2023-02-10T05:34:32;102243.41;;;-0.52;51.40
68654;BME280;55636;51.108;13.622;2023-02-10T05:35:34;102248.69;;;-0.51;51.46
68654;BME280;55636;51.108;13.622;2023-02-10T05:36:36;102246.81;;;-0.50;51.68
68654;BME280;55636;51.108;13.622;2023-02-10T05:37:39;102243.25;;;-0.51;51.51
68654;BME280;55636;51.108;13.622;2023-02-10T05:38:41;102244.00;;;-0.49;51.50
68654;BME280;55636;51.108;13.622;2023-02-10T05:40:04;102245.00;;;-0.50;51.55
68654;BME280;55636;51.108;13.622;2023-02-10T05:41:06;102242.13;;;-0.48;51.52
68654;BME280;55636;51.108;13.622;2023-02-10T05:42:09;102234.81;;;-0.48;51.56
68654;BME280;55636;51.108;13.622;2023-02-10T05:43:12;102241.13;;;-0.47;51.67
68654;BME280;55636;51.108;13.622;2023-02-10T05:44:16;102238.41;;;-0.47;51.79
68654;BME280;55636;51.108;13.622;2023-02-10T05:45:19;102237.41;;;-0.46;51.75
68654;BME280;55636;51.108;13.622;2023-02-10T05:46:22;102240.00;;;-0.45;51.93
68654;BME280;55636;51.108;13.622;2023-02-10T05:47:24;102242.72;;;-0.45;51.83
68654;BME280;55636;51.108;13.622;2023-02-10T05:48:26;102240.97;;;-0.46;51.84
68654;BME280;55636;51.108;13.622;2023-02-10T05:49:29;102245.44;;;-0.45;51.78
68654;BME280;55636;51.108;13.622;2023-02-10T05:50:32;102239.84;;;-0.43;51.80
68654;BME280;55636;51.108;13.622;2023-02-10T05:51:34;102248.00;;;-0.43;51.89